Time;durP1;ratioP1;P1;durP2;ratioP2;P2;SDS_P1;SDS_P2;PMS_P1;PMS_P2;Temp;Humidity;BMP_temperature;BMP_pressure;BME280_temperature;BME280_humidity;BME280_pressure;Samples;Min_cycle;Max_cycle;Signal;HPM_P1;HPM_P2
2023/01/25 00:00:16;;;;;;;20.37;11.03;;;5.70;99.90;;;;;;7393129;19;20555;-78
2023/01/25 00:02:42;;;;;;;18.00;10.73;;;5.80;99.90;;;;;;7394389;19;20131;-76
2023/01/25 00:05:08;;;;;;;17.37;11.73;;;5.80;99.90;;;;;;7390866;19;20603;-77
2023/01/25 00:07:34;;;;;;;17.73;11.33;;;5.90;99.90;;;;;;7391018;19;20153;-78
2023/01/25 00:10:00;;;;;;;22.30;12.60;;;5.80;99.90;;;;;;7389992;19;20142;-79
2023/01/25 00:12:25;;;;;;;21.83;12.10;;;5.80;99.90;;;;;;7390337;19;20131;-77
2023/01/25 00:14:51;;;;;;;17.47;11.40;;;5.70;99.90;;;;;;7391139;19;20167;-77
2023/01/25 00:17:17;;;;;;;18.80;11.30;;;5.80;99.90;;;;;;7387921;19;20591;-77
2023/01/25 00:19:43;;;;;;;15.77;10.67;;;5.20;99.90;;;;;;7391210;19;20599;-78
2023/01/25 00:22:09;;;;;;;17.67;11.07;;;5.20;99.90;;;;;;7392418;19;20143;-76
2023/01/25 00:24:34;;;;;;;18.10;11.47;;;5.50;99.90;;;;;;7391813;19;20167;-77
2023/01/25 00:27:01;;;;;;;17.17;11.37;;;5.70;99.90;;;;;;7390088;19;20158;-77
2023/01/25 00:29:27;;;;;;;16.90;11.53;;;5.80;99.90;;;;;;7392421;19;20143;-77
2023/01/25 00:32:02;;;;;;;18.67;11.27;;;5.80;99.90;;;;;;7389604;19;20150;-76
2023/01/25 00:34:37;;;;;;;16.87;10.50;;;5.90;99.90;;;;;;7389719;19;20202;-77
2023/01/25 00:37:22;;;;;;;17.50;10.90;;;5.90;99.90;;;;;;7386136;19;20174;-77
2023/01/25 00:39:47;;;;;;;17.07;11.40;;;5.90;99.90;;;;;;7390276;19;20158;-77
2023/01/25 00:42:16;;;;;;;19.07;11.60;;;5.90;99.90;;;;;;7391178;19;20161;-80
2023/01/25 00:44:41;;;;;;;18.60;11.10;;;5.80;99.90;;;;;;7391703;19;20909;-77
2023/01/25 00:47:09;;;;;;;19.60;11.33;;;5.80;99.90;;;;;;7391933;19;20142;-77
2023/01/25 00:49:36;;;;;;;16.77;10.13;;;5.80;99.90;;;;;;7389275;19;20243;-77
2023/01/25 00:52:02;;;;;;;20.80;10.80;;;5.40;99.90;;;;;;7388943;19;20253;-76
2023/01/25 00:54:28;;;;;;;16.67;10.93;;;5.60;99.90;;;;;;7388065;19;20139;-76
2023/01/25 00:56:55;;;;;;;18.10;11.23;;;5.70;99.90;;;;;;7386904;19;20639;-77
2023/01/25 00:59:22;;;;;;;15.20;10.03;;;5.50;99.90;;;;;;7390953;19;20138;-77
2023/01/25 01:01:49;;;;;;;18.30;10.57;;;5.70;99.90;;;;;;7386652;19;20158;-77
2023/01/25 01:04:18;;;;;;;16.57;11.00;;;5.70;99.90;;;;;;7391624;19;20154;-77
2023/01/25 01:06:44;;;;;;;15.63;10.13;;;5.80;99.90;;;;;;7390721;19;21093;-77
2023/01/25 01:09:16;;;;;;;18.63;10.87;;;5.70;99.90;;;;;;7389610;19;20226;-77
2023/01/25 01:11:42;;;;;;;15.47;11.07;;;5.70;99.90;;;;;;7388739;19;20150;-76
2023/01/25 01:14:09;;;;;;;16.97;10.30;;;5.70;99.90;;;;;;7392668;19;20150;-75
2023/01/25 01:16:35;;;;;;;17.10;10.50;;;5.80;99.90;;;;;;7389190;19;20138;-77
2023/01/25 01:19:01;;;;;;;17.87;11.33;;;5.80;99.90;;;;;;7389991;19;20150;-76
2023/01/25 01:21:27;;;;;;;17.80;10.93;;;5.60;99.90;;;;;;7391265;19;20135;-77
2023/01/25 01:23:55;;;;;;;15.53;10.57;;;5.70;99.90;;;;;;7392408;19;20622;-77
2023/01/25 01:26:21;;;;;;;17.40;10.73;;;5.70;99.90;;;;;;7392420;19;20131;-77
2023/01/25 01:28:47;;;;;;;17.97;11.13;;;5.70;99.90;;;;;;7389366;19;20451;-77
2023/01/25 01:31:19;;;;;;;17.97;10.77;;;5.80;99.90;;;;;;7389424;19;20142;-77
2023/01/25 01:33:52;;;;;;;17.07;10.43;;;5.80;99.90;;;;;;7390032;19;20135;-76
2023/01/25 01:36:21;;;;;;;19.20;10.23;;;5.70;99.90;;;;;;7389135;19;20147;-77
2023/01/25 01:38:47;;;;;;;17.40;10.77;;;5.80;99.90;;;;;;7394020;19;20157;-76
2023/01/25 01:41:14;;;;;;;14.47;9.50;;;5.70;99.90;;;;;;7397254;19;20210;-77
2023/01/25 01:43:40;;;;;;;16.53;10.07;;;5.70;99.90;;;;;;7395023;19;20176;-77
2023/01/25 01:46:21;;;;;;;16.03;10.80;;;5.80;99.90;;;;;;7397090;19;20175;-77
2023/01/25 01:49:08;;;;;;;20.53;10.60;;;5.90;99.90;;;;;;7395551;19;20150;-76
2023/01/25 01:51:51;;;;;;;16.33;10.37;;;5.80;99.90;;;;;;7396377;19;20158;-76
2023/01/25 01:54:37;;;;;;;14.87;9.70;;;5.70;99.90;;;;;;7394245;19;20577;-76
2023/01/25 01:57:02;;;;;;;16.77;10.47;;;5.60;99.90;;;;;;7393267;19;20149;-77
2023/01/25 01:59:52;;;;;;;17.47;10.90;;;5.70;99.90;;;;;;7397442;19;20571;-77
2023/01/25 02:02:17;;;;;;;16.33;10.13;;;5.80;99.90;;;;;;7395235;19;20495;-76
2023/01/25 02:04:47;;;;;;;17.57;10.57;;;5.80;99.90;;;;;;7397150;19;20127;-77
2023/01/25 02:07:22;;;;;;;18.70;10.67;;;5.70;99.90;;;;;;7396530;19;20186;-78
2023/01/25 02:09:50;;;;;;;17.30;10.57;;;5.60;99.90;;;;;;7395014;19;20126;-76
2023/01/25 02:12:17;;;;;;;16.17;9.53;;;5.60;99.90;;;;;;7397400;19;20210;-78
2023/01/25 02:14:47;;;;;;;17.17;9.93;;;5.60;99.90;;;;;;7395627;19;20126;-77
2023/01/25 02:17:13;;;;;;;18.30;10.33;;;5.60;99.90;;;;;;7394856;19;20139;-76
2023/01/25 02:19:55;;;;;;;18.57;10.87;;;5.60;99.90;;;;;;7395288;19;20210;-76
2023/01/25 02:22:30;;;;;;;16.97;10.50;;;5.70;99.90;;;;;;7395952;19;20189;-76
2023/01/25 02:25:07;;;;;;;15.77;9.87;;;5.70;99.90;;;;;;7393660;19;20206;-77
2023/01/25 02:27:37;;;;;;;17.33;10.70;;;5.70;99.90;;;;;;7390385;19;20151;-77
2023/01/25 02:30:04;;;;;;;16.60;9.97;;;5.80;99.90;;;;;;7394838;19;20173;-76
2023/01/25 02:32:31;;;;;;;19.07;10.67;;;5.90;99.90;;;;;;7391350;19;20150;-77
2023/01/25 02:34:57;;;;;;;16.33;10.00;;;5.90;99.90;;;;;;7392159;19;20150;-77
2023/01/25 02:37:22;;;;;;;15.27;9.83;;;5.90;99.90;;;;;;7387258;19;20554;-79
2023/01/25 02:39:48;;;;;;;15.07;9.53;;;5.80;99.90;;;;;;7392043;19;20155;-76
2023/01/25 02:42:14;;;;;;;16.00;9.67;;;5.80;99.90;;;;;;7393265;19;20571;-77
2023/01/25 02:44:41;;;;;;;14.60;9.53;;;5.80;99.90;;;;;;7392032;19;20134;-77
2023/01/25 02:47:06;;;;;;;16.83;9.93;;;5.80;99.90;;;;;;7393048;19;20147;-79
2023/01/25 02:49:35;;;;;;;17.00;9.93;;;5.90;99.90;;;;;;7390515;19;20751;-78
2023/01/25 02:52:02;;;;;;;16.53;9.63;;;5.90;99.90;;;;;;7391654;19;20188;-77
2023/01/25 02:54:28;;;;;;;15.33;10.30;;;5.80;99.90;;;;;;7394812;19;20169;-77
2023/01/25 02:56:54;;;;;;;12.77;9.17;;;5.80;99.90;;;;;;7392343;19;20476;-77
2023/01/25 02:59:21;;;;;;;18.90;9.40;;;5.90;99.90;;;;;;7394531;19;20139;-77
2023/01/25 03:01:47;;;;;;;16.23;10.03;;;5.80;99.90;;;;;;7389967;19;20156;-77
2023/01/25 03:04:13;;;;;;;18.43;10.37;;;5.80;99.90;;;;;;7391379;19;20154;-77
2023/01/25 03:06:39;;;;;;;18.63;10.43;;;5.90;99.90;;;;;;7391519;19;20713;-76
2023/01/25 03:09:08;;;;;;;15.80;9.17;;;5.80;99.90;;;;;;7392569;19;20139;-76
2023/01/25 03:11:34;;;;;;;19.03;10.27;;;5.80;99.90;;;;;;7392047;19;20812;-77
2023/01/25 03:14:00;;;;;;;16.23;10.13;;;5.80;99.90;;;;;;7392012;19;20146;-78
2023/01/25 03:16:26;;;;;;;15.20;9.57;;;5.80;99.90;;;;;;7390352;19;20219;-77
2023/01/25 03:18:53;;;;;;;14.53;9.20;;;5.70;99.90;;;;;;7394219;19;20139;-77
2023/01/25 03:21:20;;;;;;;15.57;9.63;;;5.80;99.90;;;;;;7392920;19;20169;-76
2023/01/25 03:23:47;;;;;;;17.47;9.43;;;5.60;99.90;;;;;;7391536;19;20467;-77
2023/01/25 03:26:18;;;;;;;14.37;9.37;;;5.40;99.90;;;;;;7392822;19;20130;-76
2023/01/25 03:28:44;;;;;;;15.10;8.53;;;5.60;99.90;;;;;;7391076;19;20147;-76
2023/01/25 03:31:12;;;;;;;13.53;8.87;;;5.50;99.90;;;;;;7391562;19;20210;-76
2023/01/25 03:33:39;;;;;;;13.70;8.53;;;5.60;99.90;;;;;;7389935;19;20666;-77
2023/01/25 03:36:05;;;;;;;13.17;8.80;;;5.70;99.90;;;;;;7382518;19;20150;-77
2023/01/25 03:38:32;;;;;;;15.23;9.53;;;5.70;99.90;;;;;;7393565;19;20150;-77
2023/01/25 03:40:57;;;;;;;17.80;10.10;;;5.80;99.90;;;;;;7391312;19;20138;-77
2023/01/25 03:43:23;;;;;;;14.60;9.13;;;5.90;99.90;;;;;;7393057;19;20143;-76
2023/01/25 03:45:58;;;;;;;17.93;9.57;;;5.90;99.90;;;;;;7395867;19;20171;-76
2023/01/25 03:48:25;;;;;;;16.97;9.80;;;5.90;99.90;;;;;;7391755;19;20274;-78
2023/01/25 03:50:53;;;;;;;14.77;9.57;;;5.90;99.90;;;;;;7392099;19;20169;-77
2023/01/25 03:53:27;;;;;;;16.13;9.00;;;5.90;99.90;;;;;;7390919;19;20143;-77
2023/01/25 03:56:08;;;;;;;13.83;8.67;;;5.90;99.90;;;;;;7391319;19;20138;-77
2023/01/25 03:58:35;;;;;;;16.50;9.20;;;5.90;99.90;;;;;;7390993;19;20143;-77
2023/01/25 04:01:04;;;;;;;14.47;8.67;;;5.80;99.90;;;;;;7388223;19;20245;-76
2023/01/25 04:03:30;;;;;;;15.77;9.07;;;5.80;99.90;;;;;;7392794;19;20135;-76
2023/01/25 04:05:57;;;;;;;16.40;8.20;;;5.90;99.90;;;;;;7391100;19;20185;-77
2023/01/25 04:08:23;;;;;;;15.57;9.23;;;5.80;99.90;;;;;;7392402;19;20138;-77
2023/01/25 04:10:59;;;;;;;15.00;9.23;;;5.80;99.90;;;;;;7389117;19;20145;-76
2023/01/25 04:13:25;;;;;;;16.70;9.50;;;5.80;99.90;;;;;;7387434;19;20158;-77
2023/01/25 04:15:51;;;;;;;14.60;8.93;;;5.70;99.90;;;;;;7389783;19;20155;-77
2023/01/25 04:18:17;;;;;;;13.43;8.77;;;5.70;99.90;;;;;;7390431;19;20221;-77
2023/01/25 04:20:43;;;;;;;14.70;8.87;;;5.80;99.90;;;;;;7390277;19;20154;-77
2023/01/25 04:23:10;;;;;;;14.17;8.60;;;5.80;99.90;;;;;;7391258;19;20134;-76
2023/01/25 04:25:36;;;;;;;14.87;8.90;;;5.80;99.90;;;;;;7388799;19;20165;-78
2023/01/25 04:28:02;;;;;;;17.43;8.60;;;5.80;99.90;;;;;;7392889;19;20497;-76
2023/01/25 04:30:28;;;;;;;13.03;8.47;;;5.80;99.90;;;;;;7385699;19;20686;-76
2023/01/25 04:32:53;;;;;;;13.83;8.33;;;5.70;99.90;;;;;;7393586;19;20205;-78
2023/01/25 04:35:19;;;;;;;13.47;8.27;;;5.70;99.90;;;;;;7389072;19;20198;-76
2023/01/25 04:37:56;;;;;;;14.97;8.73;;;5.80;99.90;;;;;;7389811;19;20130;-76
2023/01/25 04:40:22;;;;;;;13.77;8.07;;;5.80;99.90;;;;;;7389440;19;20145;-78
2023/01/25 04:42:47;;;;;;;12.33;7.47;;;5.80;99.90;;;;;;7389736;19;20583;-78
2023/01/25 04:45:13;;;;;;;13.77;7.60;;;5.80;99.90;;;;;;7392206;19;20134;-76
2023/01/25 04:47:39;;;;;;;12.30;8.00;;;5.90;99.90;;;;;;7392945;19;20206;-77
2023/01/25 04:50:05;;;;;;;11.17;7.03;;;5.90;99.90;;;;;;7390121;19;20150;-78
2023/01/25 04:52:31;;;;;;;11.53;7.53;;;6.00;99.90;;;;;;7391889;19;20135;-77
2023/01/25 04:54:56;;;;;;;11.00;6.53;;;5.90;99.90;;;;;;7389234;19;20143;-77
2023/01/25 04:57:23;;;;;;;10.20;7.30;;;5.90;99.90;;;;;;7387508;19;20150;-76
2023/01/25 04:59:49;;;;;;;11.30;7.37;;;5.90;99.90;;;;;;7389607;19;20151;-77
2023/01/25 05:02:16;;;;;;;10.57;6.43;;;5.90;99.90;;;;;;7389842;19;20142;-78
2023/01/25 05:04:42;;;;;;;9.73;6.50;;;5.90;99.90;;;;;;7392450;19;20138;-77
2023/01/25 05:07:07;;;;;;;10.60;6.60;;;5.90;99.90;;;;;;7390765;19;20134;-77
2023/01/25 05:09:33;;;;;;;11.13;6.60;;;6.00;99.90;;;;;;7392498;19;20461;-77
2023/01/25 05:11:59;;;;;;;12.53;7.00;;;6.00;99.90;;;;;;7394478;19;20138;-79
2023/01/25 05:14:24;;;;;;;12.73;7.13;;;6.00;99.90;;;;;;7397457;19;20171;-77
2023/01/25 05:16:50;;;;;;;9.50;6.50;;;5.90;99.90;;;;;;7394449;19;20608;-76
2023/01/25 05:19:16;;;;;;;8.93;5.53;;;5.90;99.90;;;;;;7397756;19;20138;-76
2023/01/25 05:21:56;;;;;;;11.37;6.30;;;6.00;99.90;;;;;;7394387;19;20194;-76
2023/01/25 05:24:27;;;;;;;10.83;6.67;;;6.00;99.90;;;;;;7396314;19;20818;-78
2023/01/25 05:26:59;;;;;;;9.03;6.23;;;5.90;99.90;;;;;;7391556;19;20197;-77
2023/01/25 05:29:38;;;;;;;10.90;6.60;;;5.90;99.90;;;;;;7396379;19;20152;-76
2023/01/25 05:32:09;;;;;;;10.93;6.93;;;5.90;99.90;;;;;;7394321;19;20138;-76
2023/01/25 05:34:35;;;;;;;10.57;6.13;;;5.90;99.90;;;;;;7395864;19;20143;-77
2023/01/25 05:37:02;;;;;;;10.07;6.27;;;5.80;99.90;;;;;;7390274;19;20131;-77
2023/01/25 05:39:27;;;;;;;9.13;6.13;;;5.80;99.90;;;;;;7393675;19;20596;-77
2023/01/25 05:41:53;;;;;;;9.27;6.17;;;5.90;99.90;;;;;;7395896;19;20138;-77
2023/01/25 05:44:19;;;;;;;12.80;7.17;;;5.70;99.90;;;;;;7394704;19;20152;-77
2023/01/25 05:46:47;;;;;;;11.37;6.80;;;5.70;99.90;;;;;;7396808;19;20138;-76
2023/01/25 05:49:12;;;;;;;8.30;5.93;;;5.80;99.90;;;;;;7394805;19;20142;-77
2023/01/25 05:51:38;;;;;;;11.53;6.13;;;5.90;99.90;;;;;;7394083;19;20147;-77
2023/01/25 05:54:05;;;;;;;13.87;6.87;;;5.90;99.90;;;;;;7394706;19;20150;-77
2023/01/25 05:56:31;;;;;;;9.67;6.40;;;5.90;99.90;;;;;;7396101;19;20760;-76
2023/01/25 05:58:59;;;;;;;11.30;6.80;;;5.90;99.90;;;;;;7395227;19;20479;-76
2023/01/25 06:01:25;;;;;;;9.17;5.97;;;5.80;99.90;;;;;;7391102;19;20615;-77
2023/01/25 06:03:51;;;;;;;11.20;7.63;;;5.80;99.90;;;;;;7393826;19;20146;-76
2023/01/25 06:06:17;;;;;;;11.10;6.30;;;5.90;99.90;;;;;;7394975;19;20131;-77
2023/01/25 06:08:43;;;;;;;9.43;6.17;;;5.70;99.90;;;;;;7393957;19;20131;-76
2023/01/25 06:11:13;;;;;;;11.40;6.73;;;5.70;99.90;;;;;;7395073;19;20138;-77
2023/01/25 06:13:40;;;;;;;9.17;6.40;;;5.70;99.90;;;;;;7393868;19;20154;-77
2023/01/25 06:16:06;;;;;;;10.43;6.37;;;5.70;99.90;;;;;;7391840;19;20159;-76
2023/01/25 06:18:33;;;;;;;10.50;6.93;;;5.80;99.90;;;;;;7396273;19;20567;-77
2023/01/25 06:21:00;;;;;;;11.40;7.13;;;5.80;99.90;;;;;;7394148;19;20138;-77
2023/01/25 06:23:26;;;;;;;10.80;6.70;;;5.80;99.90;;;;;;7391746;19;20135;-77
2023/01/25 06:25:56;;;;;;;12.07;7.30;;;5.80;99.90;;;;;;7395603;19;20235;-76
2023/01/25 06:28:22;;;;;;;10.40;6.43;;;5.90;99.90;;;;;;7393488;19;20216;-77
2023/01/25 06:30:48;;;;;;;10.97;6.63;;;5.90;99.90;;;;;;7392927;19;20138;-77
2023/01/25 06:33:13;;;;;;;10.00;6.43;;;5.90;99.90;;;;;;7396878;19;20130;-76
2023/01/25 06:35:39;;;;;;;11.50;7.20;;;5.90;99.90;;;;;;7393319;19;20150;-77
2023/01/25 06:38:05;;;;;;;10.63;6.70;;;5.90;99.90;;;;;;7391966;19;20139;-76
2023/01/25 06:40:31;;;;;;;10.33;6.80;;;5.80;99.90;;;;;;7395742;19;20715;-77
2023/01/25 06:43:15;;;;;;;12.43;6.47;;;5.90;99.90;;;;;;7397469;19;20147;-78
2023/01/25 06:45:41;;;;;;;9.67;6.20;;;5.90;99.90;;;;;;7402399;19;20137;-76
2023/01/25 06:48:07;;;;;;;11.47;7.10;;;5.90;99.90;;;;;;7394059;19;20214;-78
2023/01/25 06:50:33;;;;;;;10.00;7.03;;;5.90;99.90;;;;;;7395381;19;20640;-79
2023/01/25 06:52:58;;;;;;;12.33;7.57;;;6.00;99.90;;;;;;7392427;19;20143;-77
2023/01/25 06:55:24;;;;;;;10.30;6.23;;;5.90;99.90;;;;;;7393754;19;20172;-77
2023/01/25 06:57:50;;;;;;;12.37;7.33;;;5.90;99.90;;;;;;7388285;19;20141;-77
2023/01/25 07:00:16;;;;;;;12.27;7.10;;;5.90;99.90;;;;;;7389771;19;20585;-75
2023/01/25 07:02:42;;;;;;;9.10;6.67;;;5.80;99.90;;;;;;7392302;19;20193;-77
2023/01/25 07:05:08;;;;;;;11.80;7.57;;;5.90;99.90;;;;;;7392722;19;20576;-77
2023/01/25 07:07:34;;;;;;;10.53;6.63;;;5.90;99.90;;;;;;7391831;19;20501;-76
2023/01/25 07:10:00;;;;;;;12.13;7.37;;;5.80;99.90;;;;;;7392015;19;20226;-77
2023/01/25 07:12:29;;;;;;;12.63;7.37;;;5.70;99.90;;;;;;7392820;19;20146;-76
2023/01/25 07:14:55;;;;;;;10.93;6.73;;;5.80;99.90;;;;;;7394390;19;20618;-78
2023/01/25 07:17:21;;;;;;;10.43;7.07;;;5.90;99.90;;;;;;7388688;19;20150;-76
2023/01/25 07:19:48;;;;;;;12.07;7.60;;;5.90;99.90;;;;;;7391341;19;20135;-75
2023/01/25 07:22:14;;;;;;;13.40;8.43;;;5.80;99.90;;;;;;7392659;19;20143;-77
2023/01/25 07:24:40;;;;;;;11.73;7.60;;;5.90;99.90;;;;;;7389689;19;20504;-78
2023/01/25 07:27:06;;;;;;;13.53;8.10;;;5.90;99.90;;;;;;7389057;19;20234;-76
2023/01/25 07:29:31;;;;;;;12.20;7.33;;;5.90;99.90;;;;;;7389960;19;20151;-78
2023/01/25 07:31:57;;;;;;;10.23;6.70;;;5.90;99.90;;;;;;7389704;19;20139;-77
2023/01/25 07:34:23;;;;;;;11.17;7.27;;;6.00;99.90;;;;;;7386833;19;20167;-76
2023/01/25 07:36:49;;;;;;;11.63;6.87;;;5.80;99.90;;;;;;7390968;19;20134;-76
2023/01/25 07:39:16;;;;;;;14.40;8.00;;;5.90;99.90;;;;;;7394514;19;20457;-77
2023/01/25 07:41:41;;;;;;;12.17;8.10;;;5.80;99.90;;;;;;7390544;19;20142;-77
2023/01/25 07:44:09;;;;;;;9.93;6.53;;;5.80;99.90;;;;;;7390299;19;20146;-76
2023/01/25 07:46:34;;;;;;;10.10;6.37;;;5.80;99.90;;;;;;7394542;19;20127;-74
2023/01/25 07:49:00;;;;;;;13.07;7.33;;;5.80;99.90;;;;;;7392624;19;20198;-77
2023/01/25 07:51:26;;;;;;;10.80;6.70;;;5.80;99.90;;;;;;7385119;19;20538;-76
2023/01/25 07:53:54;;;;;;;11.40;7.03;;;5.70;99.90;;;;;;7392296;19;20139;-79
2023/01/25 07:56:26;;;;;;;12.00;7.67;;;5.80;99.90;;;;;;7388008;19;20618;-76
2023/01/25 07:58:54;;;;;;;11.70;6.97;;;5.70;99.90;;;;;;7390774;19;20160;-75
2023/01/25 08:01:22;;;;;;;14.13;7.60;;;5.80;99.90;;;;;;7385975;19;20197;-75
2023/01/25 08:03:48;;;;;;;12.40;8.43;;;5.90;99.90;;;;;;7387917;19;20210;-75
2023/01/25 08:06:14;;;;;;;11.23;6.73;;;5.80;99.90;;;;;;7391231;19;20179;-75
2023/01/25 08:08:46;;;;;;;12.10;7.57;;;5.80;99.90;;;;;;7388710;19;20134;-75
2023/01/25 08:11:19;;;;;;;11.43;7.30;;;5.80;99.90;;;;;;7387532;19;20134;-75
2023/01/25 08:13:45;;;;;;;12.57;7.33;;;5.80;99.90;;;;;;7388754;19;20150;-74
2023/01/25 08:16:15;;;;;;;12.03;7.67;;;5.80;99.90;;;;;;7386480;19;20539;-74
2023/01/25 08:18:40;;;;;;;12.77;8.13;;;5.80;99.90;;;;;;7388561;19;20234;-74
2023/01/25 08:21:07;;;;;;;12.40;6.43;;;5.80;99.90;;;;;;7389573;19;20146;-76
2023/01/25 08:23:32;;;;;;;10.90;6.93;;;5.80;99.90;;;;;;7386659;19;20505;-73
2023/01/25 08:26:06;;;;;;;10.70;6.90;;;5.90;99.90;;;;;;7389918;19;20146;-75
2023/01/25 08:28:32;;;;;;;12.33;8.13;;;5.90;99.90;;;;;;7386678;19;20142;-77
2023/01/25 08:31:17;;;;;;;12.53;7.00;;;5.90;99.90;;;;;;7387568;19;20508;-75
2023/01/25 08:33:45;;;;;;;11.17;6.87;;;5.90;99.90;;;;;;7389565;19;20594;-74
2023/01/25 08:36:11;;;;;;;12.70;7.50;;;6.00;99.90;;;;;;7383921;19;20181;-75
2023/01/25 08:38:38;;;;;;;12.40;6.90;;;6.00;99.90;;;;;;7388763;19;20134;-75
2023/01/25 08:41:11;;;;;;;10.87;6.90;;;6.10;99.90;;;;;;7387586;19;20135;-75
2023/01/25 08:43:37;;;;;;;10.73;6.97;;;5.90;99.90;;;;;;7386767;19;20138;-74
2023/01/25 08:46:04;;;;;;;10.50;6.60;;;5.90;99.90;;;;;;7386025;19;20659;-76
2023/01/25 08:48:32;;;;;;;11.33;6.87;;;6.00;99.90;;;;;;7386978;19;20175;-75
2023/01/25 08:50:59;;;;;;;11.03;8.17;;;5.80;99.90;;;;;;7392943;19;20395;-74
2023/01/25 08:53:29;;;;;;;14.40;9.30;;;5.80;99.90;;;;;;7393293;19;20135;-75
2023/01/25 08:55:55;;;;;;;13.80;7.80;;;5.80;99.90;;;;;;7389116;19;20138;-76
2023/01/25 08:58:21;;;;;;;12.53;6.87;;;6.00;99.90;;;;;;7386911;19;20155;-75
2023/01/25 09:00:48;;;;;;;9.27;6.60;;;6.10;99.90;;;;;;7389020;19;20154;-75
2023/01/25 09:03:17;;;;;;;11.20;6.57;;;6.10;99.90;;;;;;7388810;19;20143;-74
2023/01/25 09:05:47;;;;;;;13.07;7.57;;;6.10;99.90;;;;;;7387209;19;20138;-75
2023/01/25 09:08:31;;;;;;;11.07;7.07;;;6.20;99.90;;;;;;7385297;19;20589;-75
2023/01/25 09:11:19;;;;;;;9.40;6.33;;;6.10;99.90;;;;;;7383401;19;20479;-75
2023/01/25 09:13:47;;;;;;;11.13;6.23;;;6.10;99.90;;;;;;7386493;19;20150;-76
2023/01/25 09:16:15;;;;;;;11.90;5.77;;;6.10;99.90;;;;;;7386978;19;20129;-75
2023/01/25 09:18:42;;;;;;;9.90;6.20;;;5.80;99.90;;;;;;7388004;19;20131;-75
2023/01/25 09:21:11;;;;;;;10.70;6.47;;;5.70;99.90;;;;;;7384852;19;20127;-75
2023/01/25 09:23:37;;;;;;;9.33;6.17;;;5.90;99.90;;;;;;7386319;19;20151;-75
2023/01/25 09:26:04;;;;;;;8.87;5.87;;;6.00;99.90;;;;;;7397818;19;20178;-75
2023/01/25 09:28:31;;;;;;;9.70;6.53;;;5.90;99.90;;;;;;7406885;19;20137;-75
2023/01/25 09:31:03;;;;;;;9.83;6.57;;;5.90;99.90;;;;;;7401333;19;20471;-74
2023/01/25 09:33:31;;;;;;;9.60;6.07;;;5.90;99.90;;;;;;7386443;19;20138;-74
2023/01/25 09:35:57;;;;;;;10.63;6.83;;;5.80;99.90;;;;;;7386802;19;20161;-74
2023/01/25 09:38:23;;;;;;;11.53;6.73;;;5.70;99.90;;;;;;7384314;19;20574;-75
2023/01/25 09:40:57;;;;;;;10.63;6.07;;;5.90;99.90;;;;;;7387948;19;20135;-74
2023/01/25 09:43:50;;;;;;;18.10;10.03;;;5.90;99.90;;;;;;7390935;19;20139;-74
2023/01/25 09:47:08;;;;;;;13.00;6.80;;;5.70;99.90;;;;;;7384675;19;20206;-75
2023/01/25 09:49:59;;;;;;;11.07;7.20;;;5.90;99.90;;;;;;7383326;19;20138;-75
2023/01/25 09:53:01;;;;;;;10.60;6.40;;;6.00;99.90;;;;;;7386084;19;20457;-76
2023/01/25 09:55:29;;;;;;;10.93;6.43;;;6.00;99.90;;;;;;7387899;19;20203;-75
2023/01/25 09:57:59;;;;;;;9.70;6.87;;;6.00;99.90;;;;;;7387313;19;20146;-74
2023/01/25 10:00:44;;;;;;;9.20;6.00;;;6.00;99.90;;;;;;7390067;19;20182;-75
2023/01/25 10:03:26;;;;;;;9.13;5.97;;;6.00;99.90;;;;;;7396249;19;20167;-77
2023/01/25 10:05:56;;;;;;;9.60;6.60;;;5.90;99.90;;;;;;7394853;19;20154;-75
2023/01/25 10:08:46;;;;;;;9.63;6.03;;;6.00;99.90;;;;;;7391538;19;20141;-74
2023/01/25 10:11:22;;;;;;;10.80;6.60;;;6.00;99.90;;;;;;7392080;19;20515;-76
2023/01/25 10:13:49;;;;;;;10.87;6.60;;;6.00;99.90;;;;;;7393585;19;20126;-76
2023/01/25 10:16:23;;;;;;;9.83;6.97;;;6.00;99.90;;;;;;7391528;19;20138;-75
2023/01/25 10:19:21;;;;;;;12.17;7.17;;;6.00;99.90;;;;;;7390163;19;20655;-76
2023/01/25 10:22:03;;;;;;;10.43;6.63;;;5.90;99.90;;;;;;7395831;19;20143;-75
2023/01/25 10:24:53;;;;;;;11.33;6.47;;;5.90;99.90;;;;;;7389573;19;20170;-74
2023/01/25 10:27:42;;;;;;;11.47;7.00;;;5.50;99.90;;;;;;7391917;19;20134;-78
2023/01/25 10:30:26;;;;;;;12.13;7.03;;;5.80;99.90;;;;;;7394798;19;20146;-77
2023/01/25 10:33:03;;;;;;;14.43;7.60;;;5.90;99.90;;;;;;7402617;19;20198;-76
2023/01/25 10:35:35;;;;;;;15.90;7.13;;;5.90;99.90;;;;;;7388920;19;20138;-76
2023/01/25 10:38:19;;;;;;;13.97;7.77;;;5.90;99.90;;;;;;7387678;19;20150;-77
2023/01/25 10:41:09;;;;;;;12.40;7.67;;;5.90;99.90;;;;;;7391667;19;20599;-76
2023/01/25 10:43:35;;;;;;;12.27;8.20;;;5.90;99.90;;;;;;7389388;19;20135;-74
2023/01/25 10:46:01;;;;;;;11.20;7.87;;;6.00;99.90;;;;;;7388815;19;20167;-75
2023/01/25 10:48:32;;;;;;;11.23;7.20;;;6.00;99.90;;;;;;7389526;19;20145;-75
2023/01/25 10:50:58;;;;;;;14.33;8.30;;;5.90;99.90;;;;;;7390498;19;20482;-76
2023/01/25 10:53:23;;;;;;;11.20;7.40;;;6.00;99.90;;;;;;7391112;19;20142;-76
2023/01/25 10:56:37;;;;;;;11.00;7.30;;;5.90;99.90;;;;;;7367679;19;20289;-76
2023/01/25 10:59:13;;;;;;;13.57;8.57;;;6.00;99.90;;;;;;7425230;19;20503;-76
2023/01/25 11:01:39;;;;;;;14.37;7.77;;;5.90;99.90;;;;;;7421051;19;20180;-75
2023/01/25 11:04:29;;;;;;;13.10;8.17;;;5.90;99.90;;;;;;7420277;19;20202;-75
2023/01/25 11:06:55;;;;;;;12.30;7.90;;;5.80;99.90;;;;;;7422593;19;20167;-75
2023/01/25 11:09:20;;;;;;;16.00;7.90;;;5.70;99.90;;;;;;7426117;19;20150;-75
2023/01/25 11:11:55;;;;;;;11.83;8.23;;;5.70;99.90;;;;;;7426548;19;20155;-75
2023/01/25 11:14:25;;;;;;;17.53;10.50;;;5.70;99.90;;;;;;7419965;19;20159;-75
2023/01/25 11:16:51;;;;;;;14.20;8.33;;;5.70;99.90;;;;;;7425172;19;20126;-75
2023/01/25 11:19:35;;;;;;;11.30;7.27;;;5.70;99.90;;;;;;7430717;19;20630;-74
2023/01/25 11:22:23;;;;;;;13.82;9.27;;;5.70;99.90;;;;;;7430531;19;20398;-74
2023/01/25 11:24:49;;;;;;;12.37;7.53;;;5.90;99.90;;;;;;7424447;19;20807;-75
2023/01/25 11:27:19;;;;;;;16.00;9.37;;;5.80;99.90;;;;;;7423217;19;20168;-75
2023/01/25 11:30:06;;;;;;;14.13;8.93;;;5.80;99.90;;;;;;7427789;19;20149;-76
2023/01/25 11:32:32;;;;;;;14.50;8.57;;;5.80;99.90;;;;;;7423571;19;20161;-75
2023/01/25 11:34:58;;;;;;;12.57;7.97;;;5.80;99.90;;;;;;7421315;19;20229;-76
2023/01/25 11:37:50;;;;;;;12.33;8.83;;;5.70;99.90;;;;;;7429162;19;20138;-76
2023/01/25 11:40:37;;;;;;;17.73;10.57;;;5.80;99.90;;;;;;7422089;19;20579;-75
2023/01/25 11:43:11;;;;;;;16.73;10.20;;;5.80;99.90;;;;;;7424656;19;20571;-75
2023/01/25 11:45:51;;;;;;;15.57;9.70;;;5.90;99.90;;;;;;7421029;19;20141;-76
2023/01/25 11:48:42;;;;;;;16.23;9.33;;;5.90;99.90;;;;;;7422716;19;20150;-77
2023/01/25 11:51:32;;;;;;;17.63;11.50;;;5.80;99.90;;;;;;7422671;19;20154;-77
2023/01/25 11:54:16;;;;;;;15.07;9.70;;;5.80;99.90;;;;;;7423641;19;20150;-74
2023/01/25 11:56:47;;;;;;;15.20;9.13;;;5.60;99.90;;;;;;7426428;19;20580;-75
2023/01/25 11:59:32;;;;;;;12.17;8.97;;;5.40;99.90;;;;;;7423174;19;20218;-75
2023/01/25 12:02:19;;;;;;;14.43;9.30;;;5.60;99.90;;;;;;7432108;19;20146;-76
2023/01/25 12:05:22;;;;;;;16.70;9.13;;;6.10;99.90;;;;;;7416808;19;20150;-78
2023/01/25 12:07:57;;;;;;;16.30;8.87;;;6.40;99.90;;;;;;7383609;19;20572;-74
2023/01/25 12:10:41;;;;;;;13.90;8.67;;;6.70;99.90;;;;;;7393099;19;20138;-74
2023/01/25 12:13:19;;;;;;;13.10;7.73;;;6.90;99.90;;;;;;7392921;19;20134;-75
2023/01/25 12:15:55;;;;;;;14.63;8.63;;;7.00;99.90;;;;;;7389646;19;20621;-76
2023/01/25 12:18:45;;;;;;;12.47;8.20;;;7.00;99.90;;;;;;7392443;19;20153;-75
2023/01/25 12:21:38;;;;;;;16.47;8.70;;;7.10;99.90;;;;;;7393213;19;20143;-75
2023/01/25 12:24:15;;;;;;;14.50;8.80;;;7.20;99.90;;;;;;7393717;19;20146;-75
2023/01/25 12:27:16;;;;;;;17.07;9.10;;;7.10;99.90;;;;;;7406698;19;20673;-75
2023/01/25 12:30:03;;;;;;;15.00;8.80;;;6.80;99.90;;;;;;7401600;19;20246;-74
2023/01/25 12:32:53;;;;;;;16.07;9.80;;;6.70;99.90;;;;;;7402098;19;20138;-74
2023/01/25 12:35:29;;;;;;;16.23;9.23;;;6.50;99.90;;;;;;7391909;19;20630;-75
2023/01/25 12:38:01;;;;;;;18.57;11.23;;;6.40;99.90;;;;;;7391120;19;20554;-75
2023/01/25 12:41:03;;;;;;;15.57;10.27;;;6.20;99.90;;;;;;7387550;19;20164;-73
2023/01/25 12:43:55;;;;;;;17.63;11.10;;;6.20;99.90;;;;;;7387076;19;20157;-72
2023/01/25 12:46:28;;;;;;;17.33;10.40;;;6.00;99.90;;;;;;7388465;19;20157;-74
2023/01/25 12:48:59;;;;;;;17.17;10.27;;;6.00;99.90;;;;;;7396598;19;20184;-74
2023/01/25 12:51:33;;;;;;;15.67;9.50;;;6.00;99.90;;;;;;7386140;19;20518;-74
2023/01/25 12:54:01;;;;;;;14.90;9.80;;;6.00;99.90;;;;;;7387551;19;20704;-75
2023/01/25 12:56:47;;;;;;;15.63;9.67;;;6.00;99.90;;;;;;7381999;19;20149;-74
2023/01/25 13:00:03;;;;;;;16.03;9.33;;;6.00;99.90;;;;;;7388558;19;20175;-75
2023/01/25 13:03:06;;;;;;;14.77;9.33;;;6.00;99.90;;;;;;7388476;19;20758;-76
2023/01/25 13:06:05;;;;;;;17.43;10.53;;;6.00;99.90;;;;;;7390764;19;20134;-74